sensor_id;sensor_type;location;lat;lon;timestamp;P1;durP1;ratioP1;P2;durP2;ratioP2
68212;SDS011;55035;47.792;8.724;2023-12-04T00:02:05;52.00;;;25.00;;
68212;SDS011;55035;47.792;8.724;2023-12-04T00:04:31;52.88;;;24.70;;
68212;SDS011;55035;47.792;8.724;2023-12-04T00:06:58;51.90;;;25.55;;
68212;SDS011;55035;47.792;8.724;2023-12-04T00:09:25;46.42;;;23.70;;
68212;SDS011;55035;47.792;8.724;2023-12-04T00:11:54;43.20;;;23.83;;
68212;SDS011;55035;47.792;8.724;2023-12-04T00:14:20;43.33;;;23.07;;
68212;SDS011;55035;47.792;8.724;2023-12-04T00:16:47;41.55;;;23.52;;
68212;SDS011;55035;47.792;8.724;2023-12-04T00:19:14;41.67;;;23.50;;
68212;SDS011;55035;47.792;8.724;2023-12-04T00:21:40;40.90;;;23.30;;
68212;SDS011;55035;47.792;8.724;2023-12-04T00:24:07;41.88;;;23.67;;
68212;SDS011;55035;47.792;8.724;2023-12-04T00:26:34;39.38;;;22.45;;
68212;SDS011;55035;47.792;8.724;2023-12-04T00:29:02;42.35;;;23.42;;
68212;SDS011;55035;47.792;8.724;2023-12-04T00:31:29;43.35;;;23.67;;
68212;SDS011;55035;47.792;8.724;2023-12-04T00:33:56;43.45;;;23.00;;
68212;SDS011;55035;47.792;8.724;2023-12-04T00:36:23;45.95;;;23.90;;
68212;SDS011;55035;47.792;8.724;2023-12-04T00:38:50;45.78;;;23.15;;
68212;SDS011;55035;47.792;8.724;2023-12-04T00:41:16;46.42;;;25.02;;
68212;SDS011;55035;47.792;8.724;2023-12-04T00:43:44;44.40;;;23.38;;
68212;SDS011;55035;47.792;8.724;2023-12-04T00:46:12;46.97;;;24.23;;
68212;SDS011;55035;47.792;8.724;2023-12-04T00:48:39;53.67;;;25.00;;
68212;SDS011;55035;47.792;8.724;2023-12-04T00:51:06;52.70;;;23.87;;
68212;SDS011;55035;47.792;8.724;2023-12-04T00:53:33;52.80;;;21.00;;
68212;SDS011;55035;47.792;8.724;2023-12-04T00:55:59;47.75;;;20.08;;
68212;SDS011;55035;47.792;8.724;2023-12-04T00:58:26;51.45;;;19.02;;
68212;SDS011;55035;47.792;8.724;2023-12-04T01:00:53;57.90;;;19.30;;
68212;SDS011;55035;47.792;8.724;2023-12-04T01:03:22;82.07;;;20.15;;
68212;SDS011;55035;47.792;8.724;2023-12-04T01:05:48;74.22;;;20.35;;
68212;SDS011;55035;47.792;8.724;2023-12-04T01:08:15;97.50;;;22.48;;
68212;SDS011;55035;47.792;8.724;2023-12-04T01:10:42;86.25;;;21.92;;
68212;SDS011;55035;47.792;8.724;2023-12-04T01:13:08;75.30;;;21.53;;
68212;SDS011;55035;47.792;8.724;2023-12-04T01:15:35;74.07;;;20.75;;
68212;SDS011;55035;47.792;8.724;2023-12-04T01:18:04;75.55;;;22.05;;
68212;SDS011;55035;47.792;8.724;2023-12-04T01:20:32;71.65;;;22.10;;
68212;SDS011;55035;47.792;8.724;2023-12-04T01:22:59;115.13;;;22.20;;
68212;SDS011;55035;47.792;8.724;2023-12-04T01:25:26;105.53;;;24.05;;
68212;SDS011;55035;47.792;8.724;2023-12-04T01:27:53;83.63;;;21.45;;
68212;SDS011;55035;47.792;8.724;2023-12-04T01:30:19;85.67;;;21.17;;
68212;SDS011;55035;47.792;8.724;2023-12-04T01:32:46;96.82;;;22.15;;
68212;SDS011;55035;47.792;8.724;2023-12-04T01:35:13;83.82;;;21.33;;
68212;SDS011;55035;47.792;8.724;2023-12-04T01:37:41;53.33;;;21.15;;
68212;SDS011;55035;47.792;8.724;2023-12-04T01:40:08;72.32;;;20.60;;
68212;SDS011;55035;47.792;8.724;2023-12-04T01:42:35;58.03;;;21.20;;
68212;SDS011;55035;47.792;8.724;2023-12-04T01:45:02;54.38;;;20.30;;
68212;SDS011;55035;47.792;8.724;2023-12-04T01:47:29;68.82;;;20.50;;
68212;SDS011;55035;47.792;8.724;2023-12-04T01:49:56;88.45;;;20.70;;
68212;SDS011;55035;47.792;8.724;2023-12-04T01:52:23;63.13;;;20.13;;
68212;SDS011;55035;47.792;8.724;2023-12-04T01:54:51;64.88;;;20.77;;
68212;SDS011;55035;47.792;8.724;2023-12-04T01:57:18;46.87;;;19.30;;
68212;SDS011;55035;47.792;8.724;2023-12-04T01:59:45;42.17;;;19.35;;
68212;SDS011;55035;47.792;8.724;2023-12-04T02:02:12;40.47;;;19.83;;
68212;SDS011;55035;47.792;8.724;2023-12-04T02:04:39;43.00;;;20.10;;
68212;SDS011;55035;47.792;8.724;2023-12-04T02:07:06;42.38;;;19.70;;
68212;SDS011;55035;47.792;8.724;2023-12-04T02:09:34;49.78;;;20.63;;
68212;SDS011;55035;47.792;8.724;2023-12-04T02:12:02;52.45;;;22.10;;
68212;SDS011;55035;47.792;8.724;2023-12-04T02:14:29;54.33;;;22.08;;
68212;SDS011;55035;47.792;8.724;2023-12-04T02:16:56;49.13;;;21.87;;
68212;SDS011;55035;47.792;8.724;2023-12-04T02:19:24;54.10;;;22.25;;
68212;SDS011;55035;47.792;8.724;2023-12-04T02:21:51;49.25;;;21.90;;
68212;SDS011;55035;47.792;8.724;2023-12-04T02:24:19;57.40;;;23.25;;
68212;SDS011;55035;47.792;8.724;2023-12-04T02:26:47;49.15;;;23.17;;
68212;SDS011;55035;47.792;8.724;2023-12-04T02:29:14;44.17;;;22.05;;
68212;SDS011;55035;47.792;8.724;2023-12-04T02:31:43;44.28;;;21.05;;
68212;SDS011;55035;47.792;8.724;2023-12-04T02:34:10;44.60;;;21.15;;
68212;SDS011;55035;47.792;8.724;2023-12-04T02:36:39;44.17;;;20.35;;
68212;SDS011;55035;47.792;8.724;2023-12-04T02:39:07;48.80;;;22.27;;
68212;SDS011;55035;47.792;8.724;2023-12-04T02:41:35;47.25;;;22.25;;
68212;SDS011;55035;47.792;8.724;2023-12-04T02:44:02;49.33;;;22.27;;
68212;SDS011;55035;47.792;8.724;2023-12-04T02:46:29;50.03;;;21.90;;
68212;SDS011;55035;47.792;8.724;2023-12-04T02:48:56;55.83;;;20.73;;
68212;SDS011;55035;47.792;8.724;2023-12-04T02:51:23;52.97;;;21.80;;
68212;SDS011;55035;47.792;8.724;2023-12-04T02:53:51;51.80;;;22.42;;
68212;SDS011;55035;47.792;8.724;2023-12-04T02:56:18;61.22;;;21.52;;
68212;SDS011;55035;47.792;8.724;2023-12-04T02:58:46;56.63;;;21.38;;
68212;SDS011;55035;47.792;8.724;2023-12-04T03:01:13;57.65;;;22.27;;
68212;SDS011;55035;47.792;8.724;2023-12-04T03:03:39;69.07;;;23.20;;
68212;SDS011;55035;47.792;8.724;2023-12-04T03:06:06;58.95;;;23.15;;
68212;SDS011;55035;47.792;8.724;2023-12-04T03:08:33;60.10;;;22.40;;
68212;SDS011;55035;47.792;8.724;2023-12-04T03:11:01;58.78;;;21.80;;
68212;SDS011;55035;47.792;8.724;2023-12-04T03:13:27;60.53;;;23.07;;
68212;SDS011;55035;47.792;8.724;2023-12-04T03:15:55;65.18;;;22.25;;
68212;SDS011;55035;47.792;8.724;2023-12-04T03:18:22;63.05;;;22.15;;
68212;SDS011;55035;47.792;8.724;2023-12-04T03:20:50;61.55;;;22.45;;
68212;SDS011;55035;47.792;8.724;2023-12-04T03:23:17;73.43;;;22.13;;
68212;SDS011;55035;47.792;8.724;2023-12-04T03:25:44;56.78;;;21.92;;
68212;SDS011;55035;47.792;8.724;2023-12-04T03:28:10;79.93;;;32.55;;
68212;SDS011;55035;47.792;8.724;2023-12-04T03:30:38;71.18;;;25.30;;
68212;SDS011;55035;47.792;8.724;2023-12-04T03:33:06;84.85;;;22.58;;
68212;SDS011;55035;47.792;8.724;2023-12-04T03:35:33;61.10;;;21.85;;
68212;SDS011;55035;47.792;8.724;2023-12-04T03:38:00;76.67;;;22.73;;
68212;SDS011;55035;47.792;8.724;2023-12-04T03:40:26;65.63;;;21.60;;
68212;SDS011;55035;47.792;8.724;2023-12-04T03:42:53;72.80;;;22.80;;
68212;SDS011;55035;47.792;8.724;2023-12-04T03:45:20;78.60;;;23.52;;
68212;SDS011;55035;47.792;8.724;2023-12-04T03:47:47;60.28;;;21.13;;
68212;SDS011;55035;47.792;8.724;2023-12-04T03:50:15;76.10;;;22.93;;
68212;SDS011;55035;47.792;8.724;2023-12-04T03:52:42;81.60;;;22.38;;
68212;SDS011;55035;47.792;8.724;2023-12-04T03:55:08;82.13;;;23.23;;
68212;SDS011;55035;47.792;8.724;2023-12-04T03:57:35;97.35;;;25.15;;
68212;SDS011;55035;47.792;8.724;2023-12-04T04:00:02;83.55;;;24.50;;
68212;SDS011;55035;47.792;8.724;2023-12-04T04:02:37;90.28;;;23.70;;
68212;SDS011;55035;47.792;8.724;2023-12-04T04:05:07;88.35;;;23.98;;
68212;SDS011;55035;47.792;8.724;2023-12-04T04:07:35;82.22;;;21.98;;
68212;SDS011;55035;47.792;8.724;2023-12-04T04:10:02;95.03;;;25.23;;
68212;SDS011;55035;47.792;8.724;2023-12-04T04:12:30;75.22;;;22.60;;
68212;SDS011;55035;47.792;8.724;2023-12-04T04:14:57;77.40;;;22.05;;
68212;SDS011;55035;47.792;8.724;2023-12-04T04:17:23;72.90;;;22.50;;
68212;SDS011;55035;47.792;8.724;2023-12-04T04:19:51;83.53;;;23.20;;
68212;SDS011;55035;47.792;8.724;2023-12-04T04:22:18;82.15;;;21.88;;
68212;SDS011;55035;47.792;8.724;2023-12-04T04:24:46;80.22;;;24.58;;
68212;SDS011;55035;47.792;8.724;2023-12-04T04:27:12;74.47;;;23.15;;
68212;SDS011;55035;47.792;8.724;2023-12-04T04:29:39;100.05;;;30.33;;
68212;SDS011;55035;47.792;8.724;2023-12-04T04:32:06;84.90;;;24.60;;
68212;SDS011;55035;47.792;8.724;2023-12-04T04:34:32;77.93;;;24.52;;
68212;SDS011;55035;47.792;8.724;2023-12-04T04:36:59;93.03;;;24.08;;
68212;SDS011;55035;47.792;8.724;2023-12-04T04:39:26;84.18;;;23.48;;
68212;SDS011;55035;47.792;8.724;2023-12-04T04:41:54;85.65;;;25.85;;
68212;SDS011;55035;47.792;8.724;2023-12-04T04:44:21;73.32;;;25.02;;
68212;SDS011;55035;47.792;8.724;2023-12-04T04:46:47;74.32;;;24.65;;
68212;SDS011;55035;47.792;8.724;2023-12-04T04:49:15;68.97;;;23.90;;
68212;SDS011;55035;47.792;8.724;2023-12-04T04:51:42;73.60;;;24.23;;
68212;SDS011;55035;47.792;8.724;2023-12-04T04:54:08;75.57;;;25.35;;
68212;SDS011;55035;47.792;8.724;2023-12-04T04:56:35;72.03;;;25.63;;
68212;SDS011;55035;47.792;8.724;2023-12-04T04:59:03;59.08;;;24.30;;
68212;SDS011;55035;47.792;8.724;2023-12-04T05:01:30;60.30;;;23.73;;
68212;SDS011;55035;47.792;8.724;2023-12-04T05:03:57;53.53;;;23.38;;
68212;SDS011;55035;47.792;8.724;2023-12-04T05:06:23;53.20;;;23.67;;
68212;SDS011;55035;47.792;8.724;2023-12-04T05:08:50;54.85;;;22.70;;
68212;SDS011;55035;47.792;8.724;2023-12-04T05:11:17;51.38;;;23.33;;
68212;SDS011;55035;47.792;8.724;2023-12-04T05:13:44;49.83;;;22.90;;
68212;SDS011;55035;47.792;8.724;2023-12-04T05:16:12;48.38;;;22.35;;
68212;SDS011;55035;47.792;8.724;2023-12-04T05:18:39;52.83;;;22.10;;
68212;SDS011;55035;47.792;8.724;2023-12-04T05:21:07;53.60;;;22.60;;
68212;SDS011;55035;47.792;8.724;2023-12-04T05:23:34;49.58;;;22.55;;
68212;SDS011;55035;47.792;8.724;2023-12-04T05:26:01;50.80;;;22.57;;
68212;SDS011;55035;47.792;8.724;2023-12-04T05:28:28;53.95;;;23.98;;
68212;SDS011;55035;47.792;8.724;2023-12-04T05:30:54;54.53;;;23.38;;
68212;SDS011;55035;47.792;8.724;2023-12-04T05:33:23;54.60;;;24.13;;
68212;SDS011;55035;47.792;8.724;2023-12-04T05:35:49;57.70;;;23.38;;
68212;SDS011;55035;47.792;8.724;2023-12-04T05:38:16;57.77;;;23.90;;
68212;SDS011;55035;47.792;8.724;2023-12-04T05:40:43;60.70;;;24.48;;
68212;SDS011;55035;47.792;8.724;2023-12-04T05:43:09;58.33;;;24.42;;
68212;SDS011;55035;47.792;8.724;2023-12-04T05:45:36;57.97;;;25.35;;
68212;SDS011;55035;47.792;8.724;2023-12-04T05:48:03;58.43;;;24.57;;
68212;SDS011;55035;47.792;8.724;2023-12-04T05:50:32;58.15;;;24.60;;
68212;SDS011;55035;47.792;8.724;2023-12-04T05:52:58;58.90;;;25.27;;
68212;SDS011;55035;47.792;8.724;2023-12-04T05:55:25;59.05;;;26.08;;
68212;SDS011;55035;47.792;8.724;2023-12-04T05:57:52;57.78;;;25.15;;
68212;SDS011;55035;47.792;8.724;2023-12-04T06:00:19;59.27;;;25.47;;
68212;SDS011;55035;47.792;8.724;2023-12-04T06:02:47;61.22;;;27.20;;
68212;SDS011;55035;47.792;8.724;2023-12-04T06:05:14;67.78;;;28.08;;
68212;SDS011;55035;47.792;8.724;2023-12-04T06:07:42;65.60;;;28.33;;
68212;SDS011;55035;47.792;8.724;2023-12-04T06:10:09;60.15;;;25.75;;
68212;SDS011;55035;47.792;8.724;2023-12-04T06:12:35;66.82;;;27.48;;
68212;SDS011;55035;47.792;8.724;2023-12-04T06:15:02;61.83;;;25.85;;
68212;SDS011;55035;47.792;8.724;2023-12-04T06:17:30;59.80;;;25.58;;
68212;SDS011;55035;47.792;8.724;2023-12-04T06:19:56;61.47;;;26.25;;
68212;SDS011;55035;47.792;8.724;2023-12-04T06:22:23;65.63;;;28.98;;
68212;SDS011;55035;47.792;8.724;2023-12-04T06:24:52;88.82;;;38.33;;
68212;SDS011;55035;47.792;8.724;2023-12-04T06:27:19;69.75;;;27.92;;
68212;SDS011;55035;47.792;8.724;2023-12-04T06:29:46;62.97;;;27.17;;
68212;SDS011;55035;47.792;8.724;2023-12-04T06:32:13;58.47;;;26.52;;
68212;SDS011;55035;47.792;8.724;2023-12-04T06:34:40;57.40;;;25.57;;
68212;SDS011;55035;47.792;8.724;2023-12-04T06:37:07;63.22;;;22.67;;
68212;SDS011;55035;47.792;8.724;2023-12-04T06:39:35;53.97;;;23.03;;
68212;SDS011;55035;47.792;8.724;2023-12-04T06:42:05;60.97;;;26.00;;
68212;SDS011;55035;47.792;8.724;2023-12-04T06:44:32;60.03;;;24.65;;
68212;SDS011;55035;47.792;8.724;2023-12-04T06:46:59;60.28;;;25.08;;
68212;SDS011;55035;47.792;8.724;2023-12-04T06:49:26;58.00;;;24.70;;
68212;SDS011;55035;47.792;8.724;2023-12-04T06:51:55;57.38;;;24.60;;
68212;SDS011;55035;47.792;8.724;2023-12-04T06:54:21;55.35;;;25.20;;
68212;SDS011;55035;47.792;8.724;2023-12-04T06:56:48;55.07;;;25.20;;
68212;SDS011;55035;47.792;8.724;2023-12-04T06:59:16;57.30;;;25.00;;
68212;SDS011;55035;47.792;8.724;2023-12-04T07:01:43;57.33;;;24.73;;
68212;SDS011;55035;47.792;8.724;2023-12-04T07:04:10;54.97;;;24.17;;
68212;SDS011;55035;47.792;8.724;2023-12-04T07:06:37;55.10;;;24.08;;
68212;SDS011;55035;47.792;8.724;2023-12-04T07:09:04;53.10;;;24.25;;
68212;SDS011;55035;47.792;8.724;2023-12-04T07:11:32;58.58;;;24.38;;
68212;SDS011;55035;47.792;8.724;2023-12-04T07:13:59;53.13;;;24.50;;
68212;SDS011;55035;47.792;8.724;2023-12-04T07:16:27;55.85;;;25.90;;
68212;SDS011;55035;47.792;8.724;2023-12-04T07:18:54;59.03;;;26.63;;
68212;SDS011;55035;47.792;8.724;2023-12-04T07:21:20;55.40;;;25.02;;
68212;SDS011;55035;47.792;8.724;2023-12-04T07:23:47;58.35;;;26.83;;
68212;SDS011;55035;47.792;8.724;2023-12-04T07:26:14;53.20;;;27.17;;
68212;SDS011;55035;47.792;8.724;2023-12-04T07:28:40;50.58;;;24.05;;
68212;SDS011;55035;47.792;8.724;2023-12-04T07:31:07;50.30;;;24.63;;
68212;SDS011;55035;47.792;8.724;2023-12-04T07:33:35;50.47;;;24.75;;
68212;SDS011;55035;47.792;8.724;2023-12-04T07:36:01;48.10;;;23.93;;
68212;SDS011;55035;47.792;8.724;2023-12-04T07:38:28;46.45;;;24.90;;
68212;SDS011;55035;47.792;8.724;2023-12-04T07:40:55;51.63;;;27.98;;
68212;SDS011;55035;47.792;8.724;2023-12-04T07:43:22;46.15;;;24.23;;
68212;SDS011;55035;47.792;8.724;2023-12-04T07:45:48;47.00;;;25.15;;
68212;SDS011;55035;47.792;8.724;2023-12-04T07:48:15;50.10;;;27.67;;
68212;SDS011;55035;47.792;8.724;2023-12-04T07:50:43;51.90;;;29.43;;
68212;SDS011;55035;47.792;8.724;2023-12-04T07:53:11;53.85;;;30.83;;
68212;SDS011;55035;47.792;8.724;2023-12-04T07:55:38;48.78;;;28.00;;
68212;SDS011;55035;47.792;8.724;2023-12-04T07:58:05;45.17;;;25.88;;
68212;SDS011;55035;47.792;8.724;2023-12-04T08:00:31;48.33;;;28.02;;
68212;SDS011;55035;47.792;8.724;2023-12-04T08:02:58;48.00;;;27.58;;
68212;SDS011;55035;47.792;8.724;2023-12-04T08:05:25;46.92;;;27.33;;
68212;SDS011;55035;47.792;8.724;2023-12-04T08:07:54;42.58;;;24.55;;
68212;SDS011;55035;47.792;8.724;2023-12-04T08:10:20;38.05;;;22.15;;
68212;SDS011;55035;47.792;8.724;2023-12-04T08:12:48;36.50;;;20.67;;
68212;SDS011;55035;47.792;8.724;2023-12-04T08:15:15;38.47;;;23.08;;
68212;SDS011;55035;47.792;8.724;2023-12-04T08:17:41;36.95;;;22.48;;
68212;SDS011;55035;47.792;8.724;2023-12-04T08:20:08;35.17;;;21.40;;
68212;SDS011;55035;47.792;8.724;2023-12-04T08:22:38;34.10;;;21.13;;
68212;SDS011;55035;47.792;8.724;2023-12-04T08:25:07;34.58;;;21.52;;
68212;SDS011;55035;47.792;8.724;2023-12-04T08:27:33;35.22;;;23.52;;
68212;SDS011;55035;47.792;8.724;2023-12-04T08:30:00;34.43;;;22.10;;
68212;SDS011;55035;47.792;8.724;2023-12-04T08:32:27;35.90;;;22.93;;
68212;SDS011;55035;47.792;8.724;2023-12-04T08:34:54;35.10;;;22.13;;
68212;SDS011;55035;47.792;8.724;2023-12-04T08:37:20;34.42;;;23.60;;
68212;SDS011;55035;47.792;8.724;2023-12-04T08:39:47;37.28;;;24.25;;
68212;SDS011;55035;47.792;8.724;2023-12-04T08:42:15;44.70;;;29.27;;
68212;SDS011;55035;47.792;8.724;2023-12-04T08:44:42;37.95;;;24.08;;
68212;SDS011;55035;47.792;8.724;2023-12-04T08:47:10;37.33;;;23.97;;
68212;SDS011;55035;47.792;8.724;2023-12-04T08:49:37;35.95;;;23.23;;
68212;SDS011;55035;47.792;8.724;2023-12-04T08:52:05;34.05;;;21.20;;
68212;SDS011;55035;47.792;8.724;2023-12-04T08:54:33;65.00;;;34.40;;
68212;SDS011;55035;47.792;8.724;2023-12-04T08:57:00;41.28;;;25.88;;
68212;SDS011;55035;47.792;8.724;2023-12-04T08:59:28;34.97;;;21.92;;
68212;SDS011;55035;47.792;8.724;2023-12-04T09:01:55;34.75;;;21.63;;
68212;SDS011;55035;47.792;8.724;2023-12-04T09:04:21;34.23;;;21.47;;
68212;SDS011;55035;47.792;8.724;2023-12-04T09:06:48;36.25;;;23.58;;
68212;SDS011;55035;47.792;8.724;2023-12-04T09:09:14;34.15;;;22.15;;
68212;SDS011;55035;47.792;8.724;2023-12-04T09:11:42;36.63;;;23.70;;
68212;SDS011;55035;47.792;8.724;2023-12-04T09:14:08;36.55;;;24.05;;
68212;SDS011;55035;47.792;8.724;2023-12-04T09:16:36;34.77;;;23.70;;
68212;SDS011;55035;47.792;8.724;2023-12-04T09:19:03;32.70;;;21.55;;
68212;SDS011;55035;47.792;8.724;2023-12-04T09:21:30;33.30;;;22.40;;
68212;SDS011;55035;47.792;8.724;2023-12-04T09:23:56;32.67;;;21.67;;
68212;SDS011;55035;47.792;8.724;2023-12-04T09:26:23;33.58;;;21.63;;
68212;SDS011;55035;47.792;8.724;2023-12-04T09:28:50;31.73;;;20.10;;
68212;SDS011;55035;47.792;8.724;2023-12-04T09:31:16;35.38;;;22.13;;
68212;SDS011;55035;47.792;8.724;2023-12-04T09:33:44;35.40;;;21.80;;
68212;SDS011;55035;47.792;8.724;2023-12-04T09:36:12;33.92;;;21.33;;
68212;SDS011;55035;47.792;8.724;2023-12-04T09:38:39;35.60;;;22.05;;
68212;SDS011;55035;47.792;8.724;2023-12-04T09:41:05;35.08;;;22.33;;
68212;SDS011;55035;47.792;8.724;2023-12-04T09:43:32;31.85;;;21.42;;
68212;SDS011;55035;47.792;8.724;2023-12-04T09:45:59;34.05;;;22.50;;
68212;SDS011;55035;47.792;8.724;2023-12-04T09:48:26;32.33;;;21.30;;
68212;SDS011;55035;47.792;8.724;2023-12-04T09:50:55;31.15;;;21.45;;
68212;SDS011;55035;47.792;8.724;2023-12-04T09:53:21;32.33;;;22.00;;
68212;SDS011;55035;47.792;8.724;2023-12-04T09:55:49;30.00;;;21.20;;
68212;SDS011;55035;47.792;8.724;2023-12-04T09:58:16;32.67;;;23.63;;
68212;SDS011;55035;47.792;8.724;2023-12-04T10:00:46;33.20;;;23.65;;
68212;SDS011;55035;47.792;8.724;2023-12-04T10:03:13;32.97;;;23.87;;
68212;SDS011;55035;47.792;8.724;2023-12-04T10:05:40;31.65;;;23.38;;
68212;SDS011;55035;47.792;8.724;2023-12-04T10:08:11;35.13;;;24.48;;
68212;SDS011;55035;47.792;8.724;2023-12-04T10:10:37;31.85;;;22.73;;
68212;SDS011;55035;47.792;8.724;2023-12-04T10:13:04;29.97;;;22.23;;
68212;SDS011;55035;47.792;8.724;2023-12-04T10:15:32;32.93;;;23.00;;
68212;SDS011;55035;47.792;8.724;2023-12-04T10:17:58;33.80;;;23.20;;
68212;SDS011;55035;47.792;8.724;2023-12-04T10:20:25;33.70;;;22.50;;
68212;SDS011;55035;47.792;8.724;2023-12-04T10:22:52;33.33;;;22.23;;
68212;SDS011;55035;47.792;8.724;2023-12-04T10:25:21;35.17;;;21.90;;
68212;SDS011;55035;47.792;8.724;2023-12-04T10:27:49;32.10;;;22.27;;
68212;SDS011;55035;47.792;8.724;2023-12-04T10:30:25;33.40;;;22.70;;
68212;SDS011;55035;47.792;8.724;2023-12-04T10:32:53;32.33;;;23.60;;
68212;SDS011;55035;47.792;8.724;2023-12-04T10:35:20;32.47;;;24.35;;
68212;SDS011;55035;47.792;8.724;2023-12-04T10:37:48;30.60;;;24.30;;
68212;SDS011;55035;47.792;8.724;2023-12-04T10:40:23;29.55;;;25.75;;
68212;SDS011;55035;47.792;8.724;2023-12-04T10:42:50;33.53;;;27.80;;
68212;SDS011;55035;47.792;8.724;2023-12-04T10:45:16;32.22;;;26.40;;
68212;SDS011;55035;47.792;8.724;2023-12-04T10:47:45;31.17;;;26.07;;
68212;SDS011;55035;47.792;8.724;2023-12-04T10:50:13;30.15;;;25.83;;
68212;SDS011;55035;47.792;8.724;2023-12-04T10:52:40;32.37;;;28.87;;
68212;SDS011;55035;47.792;8.724;2023-12-04T10:55:08;29.92;;;25.15;;
68212;SDS011;55035;47.792;8.724;2023-12-04T10:57:39;30.75;;;26.10;;
68212;SDS011;55035;47.792;8.724;2023-12-04T11:00:06;33.05;;;27.15;;
68212;SDS011;55035;47.792;8.724;2023-12-04T11:02:34;31.30;;;26.13;;
68212;SDS011;55035;47.792;8.724;2023-12-04T11:05:01;32.43;;;26.33;;
68212;SDS011;55035;47.792;8.724;2023-12-04T11:07:31;30.55;;;25.40;;
68212;SDS011;55035;47.792;8.724;2023-12-04T11:09:59;29.80;;;20.88;;
68212;SDS011;55035;47.792;8.724;2023-12-04T11:12:27;27.15;;;17.27;;
68212;SDS011;55035;47.792;8.724;2023-12-04T11:14:56;29.08;;;23.05;;
68212;SDS011;55035;47.792;8.724;2023-12-04T11:17:25;31.63;;;25.08;;
68212;SDS011;55035;47.792;8.724;2023-12-04T11:19:58;34.53;;;27.67;;
68212;SDS011;55035;47.792;8.724;2023-12-04T11:22:27;33.38;;;28.13;;
68212;SDS011;55035;47.792;8.724;2023-12-04T11:24:53;33.65;;;27.17;;
68212;SDS011;55035;47.792;8.724;2023-12-04T11:27:20;35.83;;;28.38;;
68212;SDS011;55035;47.792;8.724;2023-12-04T11:29:47;35.80;;;28.83;;
68212;SDS011;55035;47.792;8.724;2023-12-04T11:32:16;38.42;;;29.65;;
68212;SDS011;55035;47.792;8.724;2023-12-04T11:34:49;43.03;;;30.77;;
68212;SDS011;55035;47.792;8.724;2023-12-04T11:37:17;42.35;;;27.80;;
68212;SDS011;55035;47.792;8.724;2023-12-04T11:39:45;43.70;;;30.50;;
68212;SDS011;55035;47.792;8.724;2023-12-04T11:42:13;44.43;;;29.40;;
68212;SDS011;55035;47.792;8.724;2023-12-04T11:44:40;42.90;;;27.85;;
68212;SDS011;55035;47.792;8.724;2023-12-04T11:47:07;41.35;;;27.63;;
68212;SDS011;55035;47.792;8.724;2023-12-04T11:49:35;40.97;;;28.17;;
68212;SDS011;55035;47.792;8.724;2023-12-04T11:52:03;38.07;;;25.50;;
68212;SDS011;55035;47.792;8.724;2023-12-04T11:54:36;39.80;;;26.60;;
68212;SDS011;55035;47.792;8.724;2023-12-04T11:57:20;39.45;;;25.65;;
68212;SDS011;55035;47.792;8.724;2023-12-04T11:59:48;40.33;;;24.67;;
68212;SDS011;55035;47.792;8.724;2023-12-04T12:02:15;39.40;;;25.30;;
68212;SDS011;55035;47.792;8.724;2023-12-04T12:04:43;40.60;;;25.42;;
68212;SDS011;55035;47.792;8.724;2023-12-04T12:07:11;39.15;;;25.55;;
68212;SDS011;55035;47.792;8.724;2023-12-04T12:09:37;41.15;;;25.85;;
68212;SDS011;55035;47.792;8.724;2023-12-04T12:12:04;40.63;;;25.50;;
68212;SDS011;55035;47.792;8.724;2023-12-04T12:14:31;40.25;;;25.45;;
68212;SDS011;55035;47.792;8.724;2023-12-04T12:16:58;39.00;;;24.98;;
68212;SDS011;55035;47.792;8.724;2023-12-04T12:19:25;39.72;;;25.80;;
68212;SDS011;55035;47.792;8.724;2023-12-04T12:21:54;38.15;;;24.88;;
68212;SDS011;55035;47.792;8.724;2023-12-04T12:24:20;39.50;;;25.50;;
68212;SDS011;55035;47.792;8.724;2023-12-04T12:26:47;38.03;;;24.63;;
68212;SDS011;55035;47.792;8.724;2023-12-04T12:29:14;38.80;;;25.87;;
68212;SDS011;55035;47.792;8.724;2023-12-04T12:31:41;38.53;;;25.02;;
68212;SDS011;55035;47.792;8.724;2023-12-04T12:34:07;40.03;;;24.45;;
68212;SDS011;55035;47.792;8.724;2023-12-04T12:36:34;37.78;;;23.38;;
68212;SDS011;55035;47.792;8.724;2023-12-04T12:39:02;37.40;;;24.00;;
68212;SDS011;55035;47.792;8.724;2023-12-04T12:41:30;39.20;;;24.67;;
68212;SDS011;55035;47.792;8.724;2023-12-04T12:43:57;39.40;;;25.67;;
68212;SDS011;55035;47.792;8.724;2023-12-04T12:46:25;38.45;;;24.38;;
68212;SDS011;55035;47.792;8.724;2023-12-04T12:48:51;38.17;;;24.27;;
68212;SDS011;55035;47.792;8.724;2023-12-04T12:51:18;37.50;;;23.38;;
68212;SDS011;55035;47.792;8.724;2023-12-04T12:53:45;38.05;;;23.38;;
68212;SDS011;55035;47.792;8.724;2023-12-04T12:56:13;35.70;;;22.70;;
68212;SDS011;55035;47.792;8.724;2023-12-04T12:58:40;37.97;;;24.45;;
68212;SDS011;55035;47.792;8.724;2023-12-04T13:01:09;37.22;;;24.23;;
68212;SDS011;55035;47.792;8.724;2023-12-04T13:03:36;37.30;;;24.40;;
68212;SDS011;55035;47.792;8.724;2023-12-04T13:06:04;37.20;;;24.67;;
68212;SDS011;55035;47.792;8.724;2023-12-04T13:08:30;36.83;;;24.92;;
68212;SDS011;55035;47.792;8.724;2023-12-04T13:11:00;38.83;;;26.47;;
68212;SDS011;55035;47.792;8.724;2023-12-04T13:13:28;38.47;;;26.10;;
68212;SDS011;55035;47.792;8.724;2023-12-04T13:15:55;37.33;;;25.17;;
68212;SDS011;55035;47.792;8.724;2023-12-04T13:18:22;39.05;;;25.60;;
68212;SDS011;55035;47.792;8.724;2023-12-04T13:20:48;39.30;;;26.30;;
68212;SDS011;55035;47.792;8.724;2023-12-04T13:23:15;38.15;;;24.40;;
68212;SDS011;55035;47.792;8.724;2023-12-04T13:25:42;39.47;;;25.57;;
68212;SDS011;55035;47.792;8.724;2023-12-04T13:28:09;40.20;;;26.55;;
68212;SDS011;55035;47.792;8.724;2023-12-04T13:30:37;40.83;;;25.25;;
68212;SDS011;55035;47.792;8.724;2023-12-04T13:33:04;43.03;;;23.98;;
68212;SDS011;55035;47.792;8.724;2023-12-04T13:35:31;41.38;;;25.20;;
68212;SDS011;55035;47.792;8.724;2023-12-04T13:37:57;45.13;;;24.90;;
68212;SDS011;55035;47.792;8.724;2023-12-04T13:40:24;43.28;;;24.58;;
68212;SDS011;55035;47.792;8.724;2023-12-04T13:42:53;41.83;;;25.00;;
68212;SDS011;55035;47.792;8.724;2023-12-04T13:45:39;40.75;;;24.73;;
68212;SDS011;55035;47.792;8.724;2023-12-04T13:48:06;43.10;;;26.67;;
68212;SDS011;55035;47.792;8.724;2023-12-04T13:50:32;66.00;;;36.92;;
68212;SDS011;55035;47.792;8.724;2023-12-04T13:52:59;44.28;;;25.55;;
68212;SDS011;55035;47.792;8.724;2023-12-04T13:55:26;44.13;;;26.10;;
68212;SDS011;55035;47.792;8.724;2023-12-04T13:58:13;47.92;;;29.25;;
68212;SDS011;55035;47.792;8.724;2023-12-04T14:01:04;45.38;;;27.52;;
68212;SDS011;55035;47.792;8.724;2023-12-04T14:03:39;48.45;;;28.05;;
68212;SDS011;55035;47.792;8.724;2023-12-04T14:06:06;45.22;;;24.90;;
68212;SDS011;55035;47.792;8.724;2023-12-04T14:08:33;46.70;;;25.05;;
68212;SDS011;55035;47.792;8.724;2023-12-04T14:10:59;47.80;;;26.43;;
68212;SDS011;55035;47.792;8.724;2023-12-04T14:13:26;45.97;;;25.55;;
68212;SDS011;55035;47.792;8.724;2023-12-04T14:15:53;45.45;;;25.75;;
68212;SDS011;55035;47.792;8.724;2023-12-04T14:18:21;47.13;;;26.40;;
68212;SDS011;55035;47.792;8.724;2023-12-04T14:20:47;49.55;;;26.95;;
68212;SDS011;55035;47.792;8.724;2023-12-04T14:23:14;49.17;;;27.10;;